Time;durP1;ratioP1;P1;durP2;ratioP2;P2;SDS_P1;SDS_P2;PMS_P1;PMS_P2;Temp;Humidity;BMP_temperature;BMP_pressure;BME280_temperature;BME280_humidity;BME280_pressure;Samples;Min_cycle;Max_cycle;Signal;HPM_P1;HPM_P2
2023/08/19 00:02:11;;;;;;;25.92;22.00;;;21.50;99.90;;;;;;5072921;28;20052;-63
2023/08/19 00:04:37;;;;;;;23.65;21.05;;;21.40;99.90;;;;;;5055231;28;20052;-62
2023/08/19 00:07:07;;;;;;;24.33;21.70;;;21.40;99.90;;;;;;5062545;28;20052;-62
2023/08/19 00:09:38;;;;;;;24.05;21.55;;;21.40;99.90;;;;;;5071726;28;20052;-62
2023/08/19 00:12:04;;;;;;;24.42;22.05;;;21.50;99.90;;;;;;5071711;28;20048;-62
2023/08/19 00:14:31;;;;;;;24.38;21.77;;;21.50;99.90;;;;;;5074428;28;20047;-62
2023/08/19 00:17:06;;;;;;;25.30;22.73;;;21.50;99.90;;;;;;5082561;28;20045;-62
2023/08/19 00:19:33;;;;;;;24.13;21.67;;;21.50;99.90;;;;;;5072338;28;20059;-62
2023/08/19 00:21:59;;;;;;;26.75;23.00;;;21.40;99.90;;;;;;5072474;28;20057;-62
2023/08/19 00:24:25;;;;;;;25.85;23.10;;;21.50;99.90;;;;;;5054697;28;20079;-62
2023/08/19 00:26:52;;;;;;;26.08;23.38;;;21.50;99.90;;;;;;5069022;28;20060;-63
2023/08/19 00:29:18;;;;;;;25.23;22.20;;;21.50;99.90;;;;;;5072700;28;20048;-62
2023/08/19 00:31:44;;;;;;;25.58;22.85;;;21.50;99.90;;;;;;5054898;28;20122;-62
2023/08/19 00:34:11;;;;;;;32.97;22.73;;;21.40;99.90;;;;;;5053942;28;20059;-63
2023/08/19 00:36:38;;;;;;;24.30;21.80;;;21.50;99.90;;;;;;5057748;28;20062;-62
2023/08/19 00:39:05;;;;;;;23.65;21.23;;;21.50;99.90;;;;;;5091990;28;20353;-62
2023/08/19 00:41:33;;;;;;;25.45;22.13;;;21.40;99.90;;;;;;5058053;28;20052;-62
2023/08/19 00:43:59;;;;;;;26.38;23.10;;;21.50;99.90;;;;;;5092072;28;20109;-62
2023/08/19 00:46:26;;;;;;;24.33;21.83;;;21.50;99.90;;;;;;5086332;28;20049;-63
2023/08/19 00:48:53;;;;;;;25.10;22.25;;;21.40;99.90;;;;;;5072457;28;20056;-62
2023/08/19 00:51:19;;;;;;;23.92;21.48;;;21.50;99.90;;;;;;5071840;28;20457;-62
2023/08/19 00:53:45;;;;;;;24.83;22.23;;;21.40;99.90;;;;;;5071549;28;20456;-62
2023/08/19 00:56:12;;;;;;;24.88;22.27;;;21.40;99.90;;;;;;5053971;28;20041;-62
2023/08/19 00:58:38;;;;;;;24.95;22.25;;;21.40;99.90;;;;;;5071975;28;20472;-62
2023/08/19 01:01:05;;;;;;;25.08;22.40;;;21.40;99.90;;;;;;5072094;28;20075;-62
2023/08/19 01:03:31;;;;;;;25.13;22.52;;;21.40;99.90;;;;;;5071596;28;20048;-62
2023/08/19 01:06:28;;;;;;;26.35;23.58;;;21.30;99.90;;;;;;5071601;28;20052;-62
2023/08/19 01:09:17;;;;;;;25.50;22.75;;;21.40;99.90;;;;;;5054252;28;20064;-62
2023/08/19 01:12:29;;;;;;;28.50;23.10;;;21.50;99.90;;;;;;5071983;28;20048;-62
2023/08/19 01:15:07;;;;;;;26.38;23.55;;;21.30;99.90;;;;;;5050066;28;20071;-62
2023/08/19 01:17:35;;;;;;;25.63;22.77;;;21.30;99.90;;;;;;5065250;28;20048;-62
2023/08/19 01:20:03;;;;;;;26.02;23.25;;;21.50;99.90;;;;;;5070195;28;20280;-63
2023/08/19 01:22:52;;;;;;;26.70;23.92;;;21.40;99.90;;;;;;5071455;28;20063;-62
2023/08/19 01:25:19;;;;;;;25.23;22.63;;;21.40;99.90;;;;;;5071866;28;20411;-62
2023/08/19 01:27:46;;;;;;;27.55;23.25;;;21.30;99.90;;;;;;5057293;28;20441;-62
2023/08/19 01:30:12;;;;;;;28.90;23.33;;;21.30;99.90;;;;;;5071775;28;20050;-63
2023/08/19 01:32:39;;;;;;;26.15;23.40;;;21.30;99.90;;;;;;5071151;28;20041;-62
2023/08/19 01:35:06;;;;;;;24.88;22.27;;;21.30;99.90;;;;;;5053324;28;20048;-63
2023/08/19 01:37:55;;;;;;;25.20;22.42;;;21.30;99.90;;;;;;5064553;28;20052;-62
2023/08/19 01:40:23;;;;;;;26.35;22.42;;;21.40;99.90;;;;;;5071948;28;20122;-63
2023/08/19 01:42:50;;;;;;;26.42;23.55;;;21.30;99.90;;;;;;5071408;28;20361;-62
2023/08/19 01:45:17;;;;;;;26.02;23.23;;;21.20;99.90;;;;;;5071529;28;20060;-63
2023/08/19 01:47:44;;;;;;;26.48;23.00;;;21.30;99.90;;;;;;5070863;28;20175;-62
2023/08/19 01:50:11;;;;;;;26.38;23.55;;;21.30;99.90;;;;;;5056508;28;20655;-62
2023/08/19 01:52:37;;;;;;;26.05;22.80;;;21.30;99.90;;;;;;5075006;28;20060;-62
2023/08/19 01:55:04;;;;;;;25.17;22.35;;;21.30;99.90;;;;;;5075314;28;20090;-62
2023/08/19 01:57:30;;;;;;;25.60;22.85;;;21.30;99.90;;;;;;5074776;28;20056;-62
2023/08/19 01:59:57;;;;;;;25.15;22.27;;;21.20;99.90;;;;;;5075248;28;20048;-63
2023/08/19 02:02:24;;;;;;;25.90;23.08;;;21.20;99.90;;;;;;5074797;28;20048;-63
2023/08/19 02:04:50;;;;;;;26.67;23.10;;;21.10;99.90;;;;;;5075368;28;20056;-62
2023/08/19 02:07:17;;;;;;;26.23;22.65;;;21.20;99.90;;;;;;5048652;28;20056;-62
2023/08/19 02:09:44;;;;;;;25.60;22.83;;;21.10;99.90;;;;;;5074785;28;20060;-62
2023/08/19 02:12:10;;;;;;;25.40;22.58;;;21.20;99.90;;;;;;5073291;28;20365;-62
2023/08/19 02:14:36;;;;;;;26.65;23.75;;;21.30;99.90;;;;;;5075038;28;20053;-62
2023/08/19 02:17:03;;;;;;;24.88;22.25;;;21.30;99.90;;;;;;5066628;28;20053;-62
2023/08/19 02:19:29;;;;;;;25.80;22.50;;;21.30;99.90;;;;;;5056904;28;20044;-63
2023/08/19 02:21:55;;;;;;;24.85;21.80;;;21.20;99.90;;;;;;5074585;28;20126;-63
2023/08/19 02:24:22;;;;;;;24.77;22.17;;;21.30;99.90;;;;;;5074379;28;20114;-62
2023/08/19 02:26:48;;;;;;;25.73;22.80;;;21.20;99.90;;;;;;5061634;28;20054;-62
2023/08/19 02:29:14;;;;;;;24.85;22.15;;;21.30;99.90;;;;;;5074475;28;20052;-63
2023/08/19 02:31:41;;;;;;;25.15;21.92;;;21.10;99.90;;;;;;5074540;28;20051;-63
2023/08/19 02:34:07;;;;;;;25.38;22.42;;;21.30;99.90;;;;;;5056217;28;20049;-62
2023/08/19 02:36:33;;;;;;;25.55;21.95;;;21.20;99.90;;;;;;5074153;28;20045;-62
2023/08/19 02:39:00;;;;;;;26.33;22.33;;;21.20;99.90;;;;;;5037989;28;20053;-62
2023/08/19 02:41:27;;;;;;;24.58;21.90;;;21.20;99.90;;;;;;5036842;28;20139;-62
2023/08/19 02:43:54;;;;;;;24.75;21.40;;;21.20;99.90;;;;;;5054210;28;20053;-63
2023/08/19 02:46:21;;;;;;;25.23;21.52;;;21.30;99.90;;;;;;5020106;28;20048;-62
2023/08/19 02:48:47;;;;;;;23.73;20.58;;;21.20;99.90;;;;;;5054843;28;20053;-62
2023/08/19 02:51:14;;;;;;;24.35;21.00;;;21.30;99.90;;;;;;5019752;28;20064;-62
2023/08/19 02:53:40;;;;;;;23.50;20.85;;;21.20;99.90;;;;;;5053874;28;20056;-62
2023/08/19 02:56:06;;;;;;;24.25;20.92;;;21.20;99.90;;;;;;5053762;28;20049;-62
2023/08/19 02:58:33;;;;;;;25.08;22.10;;;21.20;99.90;;;;;;5053956;28;20441;-63
2023/08/19 03:00:59;;;;;;;27.08;21.48;;;21.20;99.90;;;;;;5052968;28;20110;-62
2023/08/19 03:03:27;;;;;;;24.73;20.70;;;21.10;99.90;;;;;;5053065;28;20052;-62
2023/08/19 03:06:02;;;;;;;23.30;20.80;;;21.20;99.90;;;;;;5018879;28;20382;-62
2023/08/19 03:08:29;;;;;;;23.08;20.58;;;21.20;99.90;;;;;;5016358;28;20374;-62
2023/08/19 03:10:55;;;;;;;23.52;20.33;;;21.10;99.90;;;;;;5033609;28;20137;-63
2023/08/19 03:13:22;;;;;;;22.92;20.13;;;21.20;99.90;;;;;;5033615;28;20627;-63
2023/08/19 03:15:49;;;;;;;23.25;19.45;;;21.20;99.90;;;;;;5033609;28;20056;-62
2023/08/19 03:18:15;;;;;;;23.45;19.52;;;21.10;99.90;;;;;;5035578;28;20056;-62
2023/08/19 03:20:42;;;;;;;22.80;20.17;;;21.20;99.90;;;;;;5035232;28;20045;-62
2023/08/19 03:23:09;;;;;;;24.30;21.67;;;21.20;99.90;;;;;;5053099;28;20067;-63
2023/08/19 03:25:35;;;;;;;22.77;20.45;;;21.10;99.90;;;;;;5053193;28;20119;-63
2023/08/19 03:28:02;;;;;;;25.00;19.80;;;21.20;99.90;;;;;;5053294;28;20052;-63
2023/08/19 03:30:28;;;;;;;24.52;20.08;;;21.10;99.90;;;;;;5053615;28;20060;-62
2023/08/19 03:32:54;;;;;;;22.45;20.05;;;21.20;99.90;;;;;;5052980;28;20055;-62
2023/08/19 03:35:20;;;;;;;22.13;19.30;;;21.00;99.90;;;;;;5053459;28;20044;-62
2023/08/19 03:37:48;;;;;;;21.90;19.50;;;21.20;99.90;;;;;;5070168;28;20056;-62
2023/08/19 03:40:14;;;;;;;22.02;19.52;;;21.20;99.90;;;;;;5075378;28;20064;-63
2023/08/19 03:42:40;;;;;;;24.20;20.17;;;21.30;99.90;;;;;;5092705;28;20521;-63
2023/08/19 03:45:07;;;;;;;23.20;19.75;;;21.10;99.90;;;;;;5075755;28;20055;-63
2023/08/19 03:47:49;;;;;;;22.83;19.95;;;21.30;99.90;;;;;;5075056;28;20055;-62
2023/08/19 03:50:15;;;;;;;21.50;18.88;;;21.30;99.90;;;;;;5058462;28;20052;-62
2023/08/19 03:52:41;;;;;;;22.35;19.23;;;21.10;99.90;;;;;;5092850;28;20051;-63
2023/08/19 03:55:08;;;;;;;20.92;18.58;;;21.10;99.90;;;;;;5093126;28;20139;-62
2023/08/19 03:57:34;;;;;;;21.08;18.83;;;21.20;99.90;;;;;;5075161;28;20040;-62
2023/08/19 04:00:01;;;;;;;21.95;19.55;;;21.30;99.90;;;;;;5075005;28;20047;-62
2023/08/19 04:02:27;;;;;;;22.45;18.20;;;21.20;99.90;;;;;;5092767;28;20109;-63
2023/08/19 04:05:01;;;;;;;23.08;19.40;;;21.20;99.90;;;;;;5093009;28;20044;-62
2023/08/19 04:07:28;;;;;;;21.08;18.77;;;21.20;99.90;;;;;;5075280;28;20113;-63
2023/08/19 04:09:55;;;;;;;22.58;19.00;;;21.30;99.90;;;;;;5075191;28;20143;-63
2023/08/19 04:12:25;;;;;;;22.63;19.63;;;21.30;99.90;;;;;;5074413;28;20481;-63
2023/08/19 04:14:51;;;;;;;22.00;19.63;;;21.30;99.90;;;;;;5074856;28;20048;-62
2023/08/19 04:17:18;;;;;;;22.50;18.85;;;21.20;99.90;;;;;;5058009;28;20053;-62
2023/08/19 04:19:45;;;;;;;23.73;19.40;;;21.30;99.90;;;;;;5092565;28;20388;-62
2023/08/19 04:22:14;;;;;;;22.38;19.42;;;21.30;99.90;;;;;;5092198;28;20052;-63
2023/08/19 04:24:40;;;;;;;21.67;18.98;;;21.20;99.90;;;;;;5092645;28;20048;-62
2023/08/19 04:27:07;;;;;;;21.50;18.67;;;21.30;99.90;;;;;;5092350;28;20051;-63
2023/08/19 04:29:33;;;;;;;20.70;18.05;;;21.30;99.90;;;;;;5058072;28;20048;-62
2023/08/19 04:32:01;;;;;;;21.95;18.45;;;21.30;99.90;;;;;;5092171;28;20048;-62
2023/08/19 04:34:31;;;;;;;20.27;18.08;;;21.40;99.90;;;;;;5074312;28;20151;-62
2023/08/19 04:36:58;;;;;;;20.55;18.15;;;21.50;99.90;;;;;;5091916;28;20059;-63
2023/08/19 04:39:24;;;;;;;20.52;18.33;;;21.30;99.90;;;;;;5092791;28;20055;-62
2023/08/19 04:41:54;;;;;;;24.98;18.52;;;21.50;99.90;;;;;;5091858;28;20461;-63
2023/08/19 04:44:21;;;;;;;22.75;18.63;;;21.40;99.90;;;;;;5092640;28;20056;-62
2023/08/19 04:46:48;;;;;;;22.08;18.02;;;21.50;99.90;;;;;;5092281;28;20108;-62
2023/08/19 04:49:14;;;;;;;23.65;18.90;;;21.60;99.90;;;;;;5092062;28;20048;-63
2023/08/19 04:51:40;;;;;;;20.67;17.90;;;21.50;99.90;;;;;;5092068;28;20064;-62
2023/08/19 04:54:07;;;;;;;21.83;17.98;;;21.50;99.90;;;;;;5074232;28;20064;-63
2023/08/19 04:56:33;;;;;;;19.83;17.48;;;21.60;99.90;;;;;;5074030;28;20119;-62
2023/08/19 04:59:01;;;;;;;19.42;16.77;;;21.50;99.90;;;;;;5074215;28;20048;-62
2023/08/19 05:01:27;;;;;;;19.77;17.48;;;21.50;99.90;;;;;;5073987;28;20479;-62
2023/08/19 05:03:54;;;;;;;18.75;16.85;;;21.60;99.90;;;;;;5073318;28;20414;-63
2023/08/19 05:06:21;;;;;;;20.75;17.30;;;21.50;99.90;;;;;;5091890;28;20040;-63
2023/08/19 05:08:47;;;;;;;20.20;17.45;;;21.70;99.90;;;;;;5092106;28;20052;-63
2023/08/19 05:11:14;;;;;;;20.27;16.70;;;21.70;99.90;;;;;;5092130;28;20040;-62
2023/08/19 05:13:42;;;;;;;21.52;17.45;;;21.60;99.90;;;;;;5073168;28;20043;-62
2023/08/19 05:16:08;;;;;;;21.75;17.55;;;21.70;99.90;;;;;;5091643;28;20040;-62
2023/08/19 05:18:35;;;;;;;18.23;16.35;;;21.70;99.90;;;;;;5092036;28;20040;-63
2023/08/19 05:21:01;;;;;;;19.35;17.17;;;21.50;99.90;;;;;;5091462;28;20451;-62
2023/08/19 05:23:27;;;;;;;20.40;17.10;;;21.60;99.90;;;;;;5092156;28;20052;-62
2023/08/19 05:25:55;;;;;;;18.50;16.35;;;21.70;99.90;;;;;;5078072;28;20162;-62
2023/08/19 05:28:21;;;;;;;18.92;17.00;;;21.70;99.90;;;;;;5095955;28;20067;-63
2023/08/19 05:30:48;;;;;;;19.00;17.02;;;21.60;99.90;;;;;;5096509;28;20056;-62
2023/08/19 05:33:14;;;;;;;19.73;16.52;;;21.80;99.90;;;;;;5095337;28;20056;-63
2023/08/19 05:35:41;;;;;;;18.88;16.80;;;21.60;99.90;;;;;;5078094;28;20103;-63
2023/08/19 05:38:07;;;;;;;18.13;16.20;;;21.80;99.90;;;;;;5073805;28;20056;-63
2023/08/19 05:40:34;;;;;;;19.20;16.10;;;21.80;99.90;;;;;;5075449;28;20127;-62
2023/08/19 05:43:00;;;;;;;19.23;16.05;;;21.70;99.90;;;;;;5057835;28;20053;-62
2023/08/19 05:45:26;;;;;;;20.02;15.77;;;21.70;99.90;;;;;;5075881;28;20052;-62
2023/08/19 05:47:54;;;;;;;17.15;14.93;;;21.80;99.90;;;;;;5075560;28;20052;-62
2023/08/19 05:50:20;;;;;;;19.08;16.92;;;21.80;99.90;;;;;;5075507;28;20416;-63
2023/08/19 05:52:47;;;;;;;20.15;17.58;;;21.80;99.90;;;;;;5057146;28;20048;-62
2023/08/19 05:55:13;;;;;;;18.80;15.73;;;21.70;99.90;;;;;;5057309;28;20147;-63
2023/08/19 05:57:39;;;;;;;18.65;16.13;;;21.90;99.90;;;;;;5074129;28;20044;-63
2023/08/19 06:00:06;;;;;;;18.27;16.38;;;21.90;99.90;;;;;;5073723;28;20048;-63
2023/08/19 06:02:33;;;;;;;17.20;15.38;;;21.90;99.90;;;;;;5074426;28;20389;-62
2023/08/19 06:04:59;;;;;;;18.30;16.23;;;21.90;99.90;;;;;;5074799;28;20049;-62
2023/08/19 06:07:26;;;;;;;17.10;15.20;;;21.80;99.90;;;;;;5065889;28;20103;-63
2023/08/19 06:09:53;;;;;;;19.13;16.10;;;21.80;99.90;;;;;;5074990;28;20049;-63
2023/08/19 06:12:19;;;;;;;18.73;15.65;;;21.80;99.90;;;;;;5074549;28;20057;-63
2023/08/19 06:14:46;;;;;;;16.95;14.55;;;21.80;99.90;;;;;;5057656;28;20118;-62
2023/08/19 06:17:12;;;;;;;17.13;15.32;;;21.80;99.90;;;;;;5074602;28;20048;-63
2023/08/19 06:19:41;;;;;;;18.08;15.55;;;21.80;99.90;;;;;;5075193;28;20056;-62
2023/08/19 06:22:09;;;;;;;17.02;14.02;;;21.80;99.90;;;;;;5070032;28;20464;-63
2023/08/19 06:24:35;;;;;;;17.38;15.00;;;21.90;99.90;;;;;;5074450;28;20052;-63
2023/08/19 06:27:01;;;;;;;17.35;15.07;;;21.90;99.90;;;;;;5074926;28;20151;-62
2023/08/19 06:29:29;;;;;;;17.10;14.95;;;21.90;99.90;;;;;;5040197;28;20060;-63
2023/08/19 06:31:57;;;;;;;17.00;15.13;;;22.00;99.90;;;;;;5056487;28;20059;-63
2023/08/19 06:34:23;;;;;;;16.85;14.23;;;22.10;99.90;;;;;;5074272;28;20060;-63
2023/08/19 06:36:52;;;;;;;15.68;13.95;;;22.10;99.90;;;;;;5072803;28;20063;-63
2023/08/19 06:39:26;;;;;;;17.30;14.38;;;22.30;99.90;;;;;;5075013;28;20045;-62
2023/08/19 06:42:02;;;;;;;18.75;14.40;;;22.30;99.90;;;;;;5074235;28;20409;-63
2023/08/19 06:44:30;;;;;;;16.55;13.93;;;22.30;99.90;;;;;;5074521;28;20062;-62
2023/08/19 06:46:57;;;;;;;16.30;14.35;;;22.40;99.90;;;;;;5067387;28;20041;-63
2023/08/19 06:49:24;;;;;;;15.77;14.07;;;22.40;99.90;;;;;;5039699;28;20051;-62
2023/08/19 06:51:52;;;;;;;17.25;15.23;;;22.70;99.90;;;;;;5073985;28;20052;-63
2023/08/19 06:54:19;;;;;;;15.27;13.75;;;22.50;99.90;;;;;;5074507;28;20051;-63
2023/08/19 06:56:53;;;;;;;14.88;13.38;;;22.50;99.90;;;;;;5073561;28;20098;-62
2023/08/19 06:59:27;;;;;;;16.08;13.68;;;22.50;99.90;;;;;;5071430;28;20048;-62
2023/08/19 07:01:59;;;;;;;16.05;14.38;;;22.60;99.90;;;;;;5073301;28;20048;-63
2023/08/19 07:04:27;;;;;;;15.93;13.13;;;22.60;99.90;;;;;;5074019;28;20059;-62
2023/08/19 07:06:57;;;;;;;16.05;13.23;;;22.70;99.90;;;;;;5073720;28;20374;-63
2023/08/19 07:09:24;;;;;;;15.63;14.00;;;22.70;99.90;;;;;;5056241;28;20058;-63
2023/08/19 07:11:55;;;;;;;17.42;13.98;;;22.80;99.90;;;;;;5073673;28;20059;-62
2023/08/19 07:14:26;;;;;;;16.38;14.65;;;22.80;99.90;;;;;;5056190;28;20114;-63
2023/08/19 07:16:57;;;;;;;17.95;14.15;;;23.00;99.90;;;;;;5055542;28;20044;-63
2023/08/19 07:19:29;;;;;;;16.83;14.73;;;23.10;99.90;;;;;;5074277;28;20048;-63
2023/08/19 07:21:56;;;;;;;16.80;15.05;;;23.10;99.90;;;;;;5093318;28;20135;-63
2023/08/19 07:24:25;;;;;;;20.20;16.30;;;23.20;99.90;;;;;;5093452;28;20404;-62
2023/08/19 07:26:51;;;;;;;18.45;15.35;;;23.20;99.90;;;;;;5086554;28;20390;-62
2023/08/19 07:29:18;;;;;;;19.20;15.43;;;23.30;99.90;;;;;;5073374;28;20052;-62
2023/08/19 07:31:47;;;;;;;19.27;14.98;;;23.40;99.90;;;;;;5072563;28;20052;-62
2023/08/19 07:34:13;;;;;;;16.20;13.25;;;23.50;99.90;;;;;;5072625;28;20063;-63
2023/08/19 07:36:39;;;;;;;16.15;13.65;;;23.70;99.90;;;;;;5054617;28;20044;-62
2023/08/19 07:39:06;;;;;;;15.05;12.98;;;23.60;99.90;;;;;;5068384;28;20052;-62
2023/08/19 07:41:32;;;;;;;14.38;12.57;;;23.80;99.90;;;;;;5062989;28;20530;-62
2023/08/19 07:44:00;;;;;;;17.58;12.95;;;23.70;99.90;;;;;;5072774;28;20465;-62
2023/08/19 07:46:26;;;;;;;14.02;12.52;;;23.80;99.90;;;;;;5072132;28;20106;-62
2023/08/19 07:48:54;;;;;;;15.35;12.13;;;23.90;99.90;;;;;;5055240;28;20059;-62
2023/08/19 07:51:21;;;;;;;15.80;12.85;;;23.90;99.90;;;;;;5073289;28;20109;-64
2023/08/19 07:53:47;;;;;;;15.82;13.48;;;23.90;99.90;;;;;;5072810;28;20044;-63
2023/08/19 07:56:13;;;;;;;16.40;12.60;;;24.00;99.90;;;;;;5072560;28;20052;-62
2023/08/19 07:58:41;;;;;;;17.90;13.30;;;24.30;99.90;;;;;;5067841;28;20094;-63
2023/08/19 08:01:10;;;;;;;14.05;12.20;;;24.30;99.90;;;;;;5093229;28;20475;-63
2023/08/19 08:03:38;;;;;;;15.52;12.30;;;24.40;99.90;;;;;;5074831;28;20483;-63
2023/08/19 08:06:05;;;;;;;15.45;11.48;;;24.50;99.90;;;;;;5074540;28;20116;-63
2023/08/19 08:08:32;;;;;;;16.90;11.80;;;24.60;99.90;;;;;;5072952;28;20045;-63
2023/08/19 08:10:59;;;;;;;13.52;11.00;;;24.80;99.90;;;;;;5072738;28;20143;-63
2023/08/19 08:13:26;;;;;;;16.65;11.55;;;25.00;99.90;;;;;;5072220;28;20181;-63
2023/08/19 08:15:53;;;;;;;11.40;10.13;;;25.10;99.90;;;;;;5055228;28;20049;-63
2023/08/19 08:18:19;;;;;;;13.18;9.73;;;25.30;99.90;;;;;;5090020;28;20044;-63
2023/08/19 08:20:45;;;;;;;13.95;9.35;;;25.20;99.90;;;;;;5057764;28;20115;-63
2023/08/19 08:23:12;;;;;;;12.63;9.25;;;25.40;99.90;;;;;;5092044;28;20101;-63
2023/08/19 08:25:38;;;;;;;13.00;9.48;;;25.50;99.90;;;;;;5075104;28;20052;-63
2023/08/19 08:28:05;;;;;;;11.18;9.15;;;25.50;99.90;;;;;;5058537;28;20052;-63
2023/08/19 08:30:31;;;;;;;13.57;9.80;;;25.60;99.90;;;;;;5071759;28;20106;-63
2023/08/19 08:32:57;;;;;;;11.43;8.88;;;25.70;99.90;;;;;;5071766;28;20118;-63
2023/08/19 08:35:23;;;;;;;10.90;8.93;;;25.70;99.90;;;;;;5053952;28;20049;-63
2023/08/19 08:37:50;;;;;;;12.07;9.57;;;25.70;99.90;;;;;;5071950;28;20109;-64
2023/08/19 08:40:16;;;;;;;11.93;9.55;;;25.70;99.90;;;;;;5070946;28;20056;-63
2023/08/19 08:42:43;;;;;;;12.38;9.68;;;25.60;99.90;;;;;;5071857;28;20058;-63
2023/08/19 08:45:11;;;;;;;14.10;9.23;;;25.70;99.90;;;;;;5072197;28;20040;-63
2023/08/19 08:47:40;;;;;;;10.70;9.15;;;25.70;99.90;;;;;;5064417;28;20319;-62
2023/08/19 08:50:07;;;;;;;11.38;8.90;;;25.70;99.90;;;;;;5072123;28;20361;-63
2023/08/19 08:52:35;;;;;;;11.13;9.52;;;25.80;99.90;;;;;;5020751;28;20048;-63
2023/08/19 08:55:02;;;;;;;11.30;9.18;;;25.80;99.90;;;;;;5072134;28;20044;-63
2023/08/19 08:57:28;;;;;;;14.57;9.70;;;25.90;99.90;;;;;;5071798;28;20064;-62
2023/08/19 08:59:55;;;;;;;10.50;9.00;;;26.00;99.90;;;;;;5071206;28;20048;-63
2023/08/19 09:02:23;;;;;;;11.82;9.43;;;26.00;99.90;;;;;;5069997;28;20117;-63
2023/08/19 09:04:49;;;;;;;10.48;9.10;;;26.10;99.90;;;;;;5054671;28;20052;-62
2023/08/19 09:07:30;;;;;;;12.15;8.73;;;26.20;99.90;;;;;;5065288;28;20048;-63
2023/08/19 09:10:29;;;;;;;10.02;9.02;;;26.30;99.90;;;;;;5071960;28;20048;-63
2023/08/19 09:12:59;;;;;;;9.88;8.65;;;26.60;99.90;;;;;;5071244;28;20105;-63
2023/08/19 09:15:31;;;;;;;14.23;9.85;;;26.70;99.90;;;;;;5072393;28;20125;-63
2023/08/19 09:18:02;;;;;;;11.38;8.40;;;26.70;99.90;;;;;;5071555;28;20489;-63
2023/08/19 09:20:28;;;;;;;11.98;8.90;;;26.80;99.90;;;;;;5071686;28;20173;-63
2023/08/19 09:23:07;;;;;;;14.85;8.55;;;26.70;99.90;;;;;;5071486;28;20056;-63
2023/08/19 09:25:34;;;;;;;12.68;8.85;;;26.80;99.90;;;;;;5072086;28;20099;-63
2023/08/19 09:28:17;;;;;;;10.57;8.40;;;26.70;99.90;;;;;;5071405;28;20048;-63
2023/08/19 09:30:44;;;;;;;12.18;9.20;;;26.60;99.90;;;;;;5054291;28;20068;-62
2023/08/19 09:33:18;;;;;;;13.57;9.20;;;26.60;99.90;;;;;;5071155;28;20058;-63
2023/08/19 09:35:46;;;;;;;12.70;9.95;;;26.30;99.90;;;;;;5037282;28;20055;-63
2023/08/19 09:38:20;;;;;;;14.57;9.57;;;26.10;99.90;;;;;;5059202;28;20563;-63
2023/08/19 09:40:57;;;;;;;11.77;9.18;;;26.00;99.90;;;;;;5071725;28;20146;-63
2023/08/19 09:43:23;;;;;;;;;;;25.90;99.90;;;;;;5070585;28;20106;-63
2023/08/19 09:45:50;;;;;;;12.00;9.25;;;25.70;99.90;;;;;;5071811;28;19921;-63
2023/08/19 09:48:16;;;;;;;11.80;9.48;;;25.60;99.90;;;;;;5071037;28;20052;-64
2023/08/19 09:50:45;;;;;;;11.27;9.77;;;25.70;99.90;;;;;;5053625;28;20060;-64
2023/08/19 09:53:15;;;;;;;11.55;9.80;;;25.50;99.90;;;;;;5053477;28;20056;-63
2023/08/19 09:55:46;;;;;;;13.77;10.40;;;25.50;99.90;;;;;;5053962;28;20044;-63
2023/08/19 09:58:12;;;;;;;11.95;10.32;;;25.60;99.90;;;;;;5053558;28;20426;-63
2023/08/19 10:00:39;;;;;;;13.05;10.52;;;25.40;99.90;;;;;;5053555;28;20045;-63
2023/08/19 10:03:06;;;;;;;12.52;10.48;;;25.40;99.90;;;;;;5070900;28;20060;-63
2023/08/19 10:05:37;;;;;;;12.05;10.88;;;25.40;99.90;;;;;;5053071;28;20055;-63
2023/08/19 10:08:06;;;;;;;;;;;25.50;99.90;;;;;;5071172;28;20055;-63
2023/08/19 10:10:36;;;;;;;11.73;10.48;;;25.40;99.90;;;;;;5073314;28;20337;-63
2023/08/19 10:13:07;;;;;;;14.68;11.20;;;25.40;99.90;;;;;;5074481;28;20075;-63
2023/08/19 10:15:36;;;;;;;15.18;11.73;;;25.50;99.90;;;;;;5074618;28;20082;-63
2023/08/19 10:18:19;;;;;;;16.75;12.35;;;25.80;99.90;;;;;;5074133;28;20484;-62
2023/08/19 10:20:55;;;;;;;16.13;12.73;;;25.90;99.90;;;;;;5074513;28;20045;-62
2023/08/19 10:23:23;;;;;;;17.67;13.75;;;25.90;99.90;;;;;;5071710;28;20059;-63
2023/08/19 10:25:49;;;;;;;14.27;12.80;;;26.00;99.90;;;;;;5074492;28;20113;-62
2023/08/19 10:28:27;;;;;;;16.85;13.43;;;26.00;99.90;;;;;;5074215;28;20121;-63
2023/08/19 10:31:08;;;;;;;16.15;13.70;;;26.10;99.90;;;;;;5056655;28;20400;-63
2023/08/19 10:33:43;;;;;;;14.30;12.55;;;26.30;99.90;;;;;;5074264;28;20052;-63
2023/08/19 10:36:17;;;;;;;14.25;12.82;;;26.30;99.90;;;;;;5074217;28;20045;-64
2023/08/19 10:38:45;;;;;;;14.77;12.18;;;26.40;99.90;;;;;;5037080;28;20064;-62
2023/08/19 10:41:27;;;;;;;17.08;12.80;;;26.50;99.90;;;;;;5050975;28;20045;-63
2023/08/19 10:44:12;;;;;;;13.63;11.95;;;26.70;99.90;;;;;;5054116;28;20053;-63
2023/08/19 10:46:40;;;;;;;13.88;12.23;;;26.90;99.90;;;;;;5053958;28;20053;-63
2023/08/19 10:49:11;;;;;;;14.25;11.93;;;27.10;99.90;;;;;;5054309;28;20102;-63
2023/08/19 10:52:06;;;;;;;15.25;12.35;;;27.20;99.90;;;;;;5035926;28;20660;-63
2023/08/19 10:54:41;;;;;;;14.13;12.55;;;27.30;99.90;;;;;;5036387;28;20056;-63
2023/08/19 10:57:10;;;;;;;14.98;13.23;;;27.50;99.90;;;;;;5054360;28;20098;-62
2023/08/19 10:59:42;;;;;;;15.85;13.57;;;27.60;99.90;;;;;;5020190;28;20056;-63
2023/08/19 11:02:09;;;;;;;16.73;14.52;;;27.50;99.90;;;;;;5053586;28;20052;-63
2023/08/19 11:04:42;;;;;;;15.10;13.60;;;27.60;99.90;;;;;;5054022;28;20076;-63
2023/08/19 11:07:10;;;;;;;16.92;14.82;;;27.70;99.90;;;;;;5047369;28;20103;-62
2023/08/19 11:09:38;;;;;;;18.30;14.98;;;27.70;99.90;;;;;;5019987;28;20053;-63
2023/08/19 11:12:06;;;;;;;18.77;16.85;;;27.70;99.90;;;;;;5053435;28;20080;-63
2023/08/19 11:14:32;;;;;;;18.33;16.42;;;27.70;99.90;;;;;;5053631;28;20053;-64
2023/08/19 11:16:58;;;;;;;19.92;16.75;;;27.80;99.90;;;;;;5053909;28;20107;-63
2023/08/19 11:19:25;;;;;;;17.95;16.15;;;28.10;99.90;;;;;;5036423;28;20041;-63
2023/08/19 11:21:54;;;;;;;19.35;17.30;;;28.30;99.90;;;;;;5035449;28;20053;-63
2023/08/19 11:24:28;;;;;;;18.90;16.98;;;28.40;99.90;;;;;;5053857;28;20045;-63
2023/08/19 11:26:55;;;;;;;22.63;17.65;;;28.30;99.90;;;;;;5053141;28;20037;-63
2023/08/19 11:29:21;;;;;;;25.92;23.33;;;28.10;99.90;;;;;;5053551;28;20057;-63
2023/08/19 11:31:51;;;;;;;26.50;22.20;;;27.60;99.90;;;;;;5053521;28;20045;-63
2023/08/19 11:34:17;;;;;;;29.67;25.50;;;27.40;99.90;;;;;;5052792;28;20053;-62
2023/08/19 11:36:45;;;;;;;37.50;28.08;;;27.20;99.90;;;;;;5052882;28;20051;-63
2023/08/19 11:39:12;;;;;;;34.60;28.60;;;27.10;99.90;;;;;;5033476;28;20052;-63
2023/08/19 11:41:39;;;;;;;33.53;25.65;;;27.20;99.90;;;;;;5052705;28;20110;-63
2023/08/19 11:44:06;;;;;;;33.15;27.17;;;27.30;99.90;;;;;;5053434;28;20056;-63
2023/08/19 11:46:34;;;;;;;33.10;26.25;;;27.30;99.90;;;;;;5051631;28;20122;-63
2023/08/19 11:49:09;;;;;;;27.67;22.90;;;27.40;99.90;;;;;;5048699;28;20045;-63
2023/08/19 11:51:41;;;;;;;26.83;20.88;;;27.40;99.90;;;;;;5052260;28;20052;-63
2023/08/19 11:54:09;;;;;;;29.33;20.70;;;27.20;99.90;;;;;;5053146;28;20045;-63
2023/08/19 11:56:47;;;;;;;27.33;21.13;;;27.10;99.90;;;;;;5034545;28;20434;-63
2023/08/19 11:59:14;;;;;;;29.02;22.92;;;26.80;99.90;;;;;;5052888;28;20065;-63
2023/08/19 12:01:40;;;;;;;31.00;24.77;;;26.80;99.90;;;;;;5051834;28;20377;-63
2023/08/19 12:04:15;;;;;;;30.90;25.08;;;26.70;99.90;;;;;;5052386;28;20045;-63
2023/08/19 12:06:43;;;;;;;32.63;25.27;;;26.60;99.90;;;;;;5034805;28;20082;-63
2023/08/19 12:09:09;;;;;;;27.95;22.63;;;26.50;99.90;;;;;;5052403;28;20377;-64
2023/08/19 12:11:36;;;;;;;20.00;16.23;;;26.50;99.90;;;;;;5034611;28;20068;-63
2023/08/19 12:14:03;;;;;;;19.60;14.60;;;26.20;99.90;;;;;;5052005;28;20060;-63
2023/08/19 12:16:30;;;;;;;17.50;14.18;;;26.00;99.90;;;;;;5033901;28;20049;-64
2023/08/19 12:18:59;;;;;;;14.80;11.73;;;26.00;99.90;;;;;;5052454;28;20087;-63
2023/08/19 12:21:26;;;;;;;12.00;9.90;;;26.00;99.90;;;;;;5051290;28;20500;-63
2023/08/19 12:23:52;;;;;;;13.88;9.95;;;26.30;99.90;;;;;;5034475;28;20057;-63
2023/08/19 12:26:18;;;;;;;12.20;9.23;;;26.30;99.90;;;;;;5034656;28;20049;-63
2023/08/19 12:28:45;;;;;;;14.40;10.05;;;26.10;99.90;;;;;;5051794;28;20049;-63
2023/08/19 12:31:11;;;;;;;13.02;10.27;;;26.10;99.90;;;;;;5052023;28;20060;-63
2023/08/19 12:33:40;;;;;;;12.65;9.48;;;25.90;99.90;;;;;;5050737;28;20128;-63
2023/08/19 12:36:07;;;;;;;11.77;9.05;;;26.00;99.90;;;;;;5051701;28;20093;-63